Flight Track Log - Related Links

Times and Time Zones

All times are in EST time to prevent confusion due to time zone crossing. See the N163CA flight status page for this flight to view local times or setup timezone preferences in your user account.

Time Position Orientation Groundspeed Altitude Reporting Facility
EST Latitude Longitude Course Direction KTS MPH feet Rate Location/Type
Wed 04:06:51 PM 28.7833 -81.2333 90° East 79 91 600  Level Orlando TRACON
Wed 04:08:03 PM 28.7833 -81.2000 90° East 76 87 1,300 636 Climbing Orlando TRACON
Wed 04:09:03 PM 28.7667 -81.1833 139° Southeast 79 91 2,000 313 Climbing Orlando TRACON
Wed 04:09:58 PM 28.7667 -81.1500 90° East 104 120 1,900 -55 Descending Orlando TRACON
Wed 04:10:52 PM 28.7667 -81.1167 90° East 107 123 1,900 -100 Level Orlando TRACON
Wed 04:11:58 PM 28.7333 -81.1167 180° South 123 142 1,700 286 Descending Orlando TRACON
Wed 04:12:58 PM 28.7167 -81.1500 240° Southwest 119 137 2,500 600 Climbing Orlando TRACON
Wed 04:13:58 PM 28.7000 -81.1833 240° Southwest 124 143 2,900 143 Climbing Orlando TRACON
Wed 04:15:04 PM 28.7000 -81.2333 270° West 129 148 2,800  Descending Orlando TRACON
Wed 04:15:58 PM 28.6833 -81.2667 240° Southwest 132 152 2,900 50 Climbing Orlando TRACON
Wed 04:17:04 PM 28.6833 -81.3167 270° West 135 155 2,900  Level Orlando TRACON
Wed 04:18:04 PM 28.6833 -81.3500 270° West 138 159 2,900  Level Orlando TRACON
Wed 04:18:58 PM 28.6667 -81.4000 249° West 138 159 2,900 105 Level Orlando TRACON
Wed 04:19:58 PM 28.6667 -81.4333 270° West 139 160 3,100 365 Climbing Orlando TRACON
Wed 04:20:53 PM 28.6667 -81.4667 270° West 121 139 3,600 316 Climbing Orlando TRACON
Wed 04:22:11 PM 28.6500 -81.5167 249° West 127 146 3,800 100 Climbing Orlando TRACON
Wed 04:22:53 PM 28.6333 -81.5500 240° Southwest 128 147 3,800 56 Level Orlando TRACON
Wed 04:23:59 PM 28.6000 -81.5667 204° Southwest 126 145 3,900 48 Climbing Orlando TRACON
Wed 04:24:59 PM 28.5667 -81.5833 204° Southwest 138 159 3,900 -47 Level Orlando TRACON
Wed 04:26:06 PM 28.5333 -81.6167 221° Southwest 141 162 3,800 -48 Descending Orlando TRACON
Wed 04:27:05 PM 28.5000 -81.6333 204° Southwest 138 159 3,800  Level Orlando TRACON
Wed 04:28:00 PM 28.5000 -81.6833 270° West 139 160 3,800  Level Orlando TRACON
Wed 04:29:05 PM 28.4833 -81.7167 240° Southwest 145 167 3,800 50 Level Orlando TRACON
Wed 04:30:00 PM 28.4500 -81.7333 204° Southwest 138 159 3,900  Climbing Orlando TRACON
Wed 04:31:00 PM 28.4167 -81.7667 221° Southwest 141 162 3,800  Descending Orlando TRACON
Wed 04:33:02 PM 28.3500 -81.8000 204° Southwest 138 159 3,900  Climbing Tampa TRACON
Wed 04:34:02 PM 28.3167 -81.8167 204° Southwest 137 158 3,800  Descending Tampa TRACON
Wed 04:35:08 PM 28.2667 -81.8500 210° Southwest 138 159 3,900 50 Climbing Tampa TRACON
Wed 04:36:02 PM 28.2500 -81.8667 221° Southwest 136 157 3,900  Level Tampa TRACON
Wed 04:37:02 PM 28.2167 -81.8833 204° Southwest 136 157 3,900 -50 Level Tampa TRACON
Wed 04:38:02 PM 28.1833 -81.9000 204° Southwest 137 158 3,800 -50 Descending Tampa TRACON
Wed 04:39:02 PM 28.1333 -81.9167 196° South 139 160 3,800  Level Tampa TRACON
Wed 04:39:56 PM 28.1167 -81.9500 240° Southwest 140 161 3,800  Level Tampa TRACON
Wed 04:40:56 PM 28.0833 -81.9667 204° Southwest 140 161 3,800  Level Tampa TRACON
Wed 04:41:56 PM 28.0500 -81.9833 204° Southwest 139 160 3,800  Level Tampa TRACON
Wed 04:42:56 PM 28.0167 -82.0000 204° Southwest 137 158 3,800  Level Tampa TRACON
Wed 04:43:56 PM 27.9667 -82.0167 196° South 137 158 3,800  Level Tampa TRACON
Wed 04:44:56 PM 27.9500 -82.0500 240° Southwest 137 158 3,800 53 Level Tampa TRACON
Wed 04:45:50 PM 27.9167 -82.0833 221° Southwest 137 158 3,900 53 Climbing Tampa TRACON
Wed 04:46:50 PM 27.8833 -82.1000 204° Southwest 139 160 3,900  Level Tampa TRACON
Wed 04:47:50 PM 27.8667 -82.1333 241° Southwest 143 165 3,900 -50 Level Tampa TRACON
Wed 04:48:50 PM 27.8333 -82.1667 221° Southwest 149 171 3,800 -53 Descending Tampa TRACON
Wed 04:49:44 PM 27.8000 -82.2000 221° Southwest 153 176 3,800 105 Level Tampa TRACON
Wed 04:50:44 PM 27.7667 -82.2167 204° Southwest 149 171 4,000  Climbing Tampa TRACON
Wed 04:51:44 PM 27.7333 -82.2500 222° Southwest 153 176 3,800 -50 Descending Tampa TRACON
Wed 04:52:45 PM 27.7000 -82.2833 222° Southwest 157 181 3,900  Climbing Tampa TRACON
Wed 04:53:45 PM 27.6667 -82.3167 222° Southwest 152 175 3,800 -48 Descending Tampa TRACON
Wed 04:54:51 PM 27.6500 -82.3667 249° West 153 176 3,800 48 Level Tampa TRACON
Wed 04:55:51 PM 27.6167 -82.4000 222° Southwest 152 175 3,900 -200 Climbing Tampa TRACON
Wed 04:56:51 PM 27.6167 -82.4500 270° West 163 188 3,400 -450 Descending Tampa TRACON
Wed 04:57:51 PM 27.6000 -82.5000 249° West 160 184 3,000 -450 Descending Tampa TRACON
Wed 04:58:51 PM 27.5833 -82.5500 249° West 158 182 2,500 -450 Descending Tampa TRACON
Wed 04:59:51 PM 27.5667 -82.6000 249° West 159 183 2,100 -300 Descending Tampa TRACON
Wed 05:00:51 PM 27.5500 -82.6333 241° Southwest 127 146 1,900 -100 Descending Tampa TRACON
Wed 05:01:51 PM 27.5333 -82.6667 241° Southwest 121 139 1,900 -50 Level Tampa TRACON
Wed 05:02:51 PM 27.5167 -82.6833 222° Southwest 121 139 1,800  Descending Tampa TRACON
Wed 05:03:51 PM 27.4833 -82.6667 156° South 108 124 1,900 -50 Climbing Tampa TRACON
Wed 05:04:51 PM 27.4667 -82.6333 119° Southeast 109 125 1,700 -381 Descending Tampa TRACON
Wed 05:05:57 PM 27.4500 -82.6167 138° Southeast 99 114 1,100 -524 Descending Tampa TRACON
Wed 05:06:57 PM 27.4333 -82.5833 119° Southeast 99 114 600 -470 Descending Tampa TRACON
Wed 05:07:52 PM 27.4167 -82.5667 138° Southeast 95 109 200 32 Descending Tampa TRACON
Wed 05:10:04 PM 27.3833 -82.5333 138° Southeast 99 114 700 412 Climbing Tampa TRACON
Wed 05:11:16 PM 27.3833 -82.5000 90° East 90 104 1,600 750 Climbing Tampa TRACON

Login

Don't have an account? Register now (free) for customized features, flight alerts, and more!